createdAt,value
2016-10-22T00:00:40.944Z,0
2016-10-22T00:01:41.681Z,0
2016-10-22T00:02:41.875Z,0
2016-10-22T00:03:41.725Z,0
2016-10-22T00:04:41.024Z,0
2016-10-22T00:05:41.558Z,0
2016-10-22T00:07:41.419Z,0
2016-10-22T00:08:40.866Z,0
2016-10-22T00:09:41.340Z,0
2016-10-22T00:10:41.563Z,0
2016-10-22T00:11:41.807Z,0
2016-10-22T00:12:40.919Z,0
2016-10-22T00:13:56.142Z,0
2016-10-22T00:14:56.439Z,0
2016-10-22T00:15:42.237Z,0
2016-10-22T00:16:42.766Z,0
2016-10-22T00:17:42.711Z,0
2016-10-22T00:18:42.177Z,0
2016-10-22T00:19:40.961Z,0
2016-10-22T00:20:41.862Z,0
2016-10-22T00:21:55.362Z,0
2016-10-22T00:22:40.856Z,0
2016-10-22T00:23:55.382Z,0
2016-10-22T00:24:41.545Z,0
2016-10-22T00:25:54.905Z,0
2016-10-22T00:26:41.554Z,0
2016-10-22T00:27:56.238Z,0
2016-10-22T00:28:40.513Z,0
2016-10-22T00:29:40.060Z,0
2016-10-22T00:30:41.787Z,0
2016-10-22T00:31:40.038Z,0
2016-10-22T00:32:41.556Z,0
2016-10-22T00:33:40.697Z,0
2016-10-22T00:34:40.626Z,0
2016-10-22T00:35:39.942Z,0
2016-10-22T00:36:39.987Z,0
2016-10-22T00:38:55.192Z,0
2016-10-22T00:39:39.752Z,0
2016-10-22T00:40:54.504Z,0
2016-10-22T00:41:41.317Z,0
2016-10-22T00:42:39.788Z,0
2016-10-22T00:43:40.021Z,0
2016-10-22T00:44:55.134Z,0
2016-10-22T00:45:55.325Z,0
2016-10-22T00:46:39.981Z,0
2016-10-22T00:47:54.966Z,0
2016-10-22T00:48:39.969Z,0
2016-10-22T00:49:39.961Z,0
2016-10-22T00:50:39.556Z,0
2016-10-22T00:51:39.799Z,0
2016-10-22T00:52:39.394Z,0
2016-10-22T00:53:39.450Z,0
2016-10-22T00:54:39.321Z,0
2016-10-22T00:55:39.668Z,0
2016-10-22T00:56:39.281Z,0
2016-10-22T00:57:39.675Z,0
2016-10-22T00:58:39.249Z,0
2016-10-22T00:59:39.604Z,0
2016-10-22T01:00:53.855Z,0
2016-10-22T01:01:39.217Z,0
2016-10-22T01:02:53.864Z,0
2016-10-22T01:03:39.280Z,0
2016-10-22T01:04:39.334Z,0
2016-10-22T01:05:39.022Z,0
2016-10-22T01:06:38.985Z,0
2016-10-22T01:07:39.429Z,0
2016-10-22T01:08:39.402Z,0
2016-10-22T01:09:39.775Z,0
2016-10-22T01:10:39.027Z,0
2016-10-22T01:11:39.161Z,0
2016-10-22T01:12:38.787Z,0
2016-10-22T01:13:54.278Z,0
2016-10-22T01:14:39.431Z,0
2016-10-22T01:15:39.264Z,0
2016-10-22T01:16:39.395Z,0
2016-10-22T01:17:39.139Z,0
2016-10-22T01:18:39.415Z,0
2016-10-22T01:19:39.285Z,0
2016-10-22T01:20:39.603Z,0
2016-10-22T01:21:38.623Z,0
2016-10-22T01:22:38.608Z,0
2016-10-22T01:24:39.474Z,0
2016-10-22T01:25:38.771Z,0
2016-10-22T01:26:38.667Z,0
2016-10-22T01:27:38.682Z,0
2016-10-22T01:28:39.407Z,0
2016-10-22T01:29:38.857Z,0
2016-10-22T01:30:53.006Z,0
2016-10-22T01:31:38.801Z,0
2016-10-22T01:32:52.945Z,0
2016-10-22T01:33:38.955Z,0
2016-10-22T01:34:38.613Z,0
2016-10-22T01:35:38.818Z,0
2016-10-22T01:36:38.821Z,0
2016-10-22T01:37:38.255Z,0
2016-10-22T01:38:38.239Z,0
2016-10-22T01:39:38.828Z,0
2016-10-22T01:41:38.054Z,0
2016-10-22T01:42:38.770Z,0
2016-10-22T01:43:38.970Z,0
2016-10-22T01:44:38.607Z,0
2016-10-22T01:45:52.912Z,0
2016-10-22T01:46:39.222Z,0
2016-10-22T01:47:52.868Z,0
2016-10-22T01:48:38.376Z,0
2016-10-22T01:49:37.733Z,0
2016-10-22T01:50:39.098Z,0
2016-10-22T01:51:37.636Z,0
2016-10-22T01:52:37.609Z,0
2016-10-22T01:53:37.983Z,0
2016-10-22T01:54:37.590Z,0
2016-10-22T01:55:37.925Z,0
2016-10-22T01:56:37.895Z,0
2016-10-22T01:57:37.959Z,0
2016-10-22T01:58:37.803Z,0
2016-10-22T01:59:37.412Z,0
2016-10-22T02:00:38.474Z,0
2016-10-22T02:01:37.709Z,0
2016-10-22T02:02:52.464Z,0
2016-10-22T02:03:37.531Z,0
2016-10-22T02:04:38.852Z,0
2016-10-22T02:05:37.284Z,0
2016-10-22T02:06:37.235Z,0
2016-10-22T02:07:37.288Z,0
2016-10-22T02:08:37.164Z,0
2016-10-22T02:09:52.135Z,0
2016-10-22T02:10:37.590Z,0
2016-10-22T02:11:37.430Z,0
2016-10-22T02:12:37.044Z,0
2016-10-22T02:13:37.024Z,0
2016-10-22T02:14:37.038Z,0
2016-10-22T02:15:37.887Z,0
2016-10-22T02:16:36.948Z,0
2016-10-22T02:17:36.936Z,0
2016-10-22T02:18:36.924Z,0
2016-10-22T02:19:36.868Z,0
2016-10-22T02:20:36.889Z,0
2016-10-22T02:21:36.827Z,0
2016-10-22T02:22:36.741Z,0
2016-10-22T02:23:36.725Z,0
2016-10-22T02:24:37.543Z,0
2016-10-22T02:25:51.892Z,0
2016-10-22T02:26:37.094Z,0
2016-10-22T02:27:52.055Z,0
2016-10-22T02:28:36.763Z,0
2016-10-22T02:29:51.299Z,0
2016-10-22T02:30:36.511Z,0
2016-10-22T02:31:36.500Z,0
2016-10-22T02:32:36.496Z,0
2016-10-22T02:33:36.827Z,0
2016-10-22T02:34:36.781Z,0
2016-10-22T02:35:36.349Z,0
2016-10-22T02:36:36.321Z,0
2016-10-22T02:37:36.722Z,0
2016-10-22T02:38:36.301Z,0
2016-10-22T02:39:36.284Z,0
2016-10-22T02:40:36.305Z,0
2016-10-22T02:41:36.916Z,0
2016-10-22T02:42:51.242Z,0
2016-10-22T02:43:37.228Z,0
2016-10-22T02:44:36.820Z,0
2016-10-22T02:45:36.810Z,0
2016-10-22T02:46:36.039Z,0
2016-10-22T02:47:36.382Z,0
2016-10-22T02:48:35.972Z,0
2016-10-22T02:49:35.941Z,0
2016-10-22T02:50:35.910Z,0
2016-10-22T02:51:35.925Z,0
2016-10-22T02:52:35.854Z,0
2016-10-22T02:53:35.827Z,0
2016-10-22T02:54:50.552Z,0
2016-10-22T02:55:35.755Z,0
2016-10-22T02:56:35.845Z,0
2016-10-22T02:57:36.116Z,0
2016-10-22T02:58:35.697Z,0
2016-10-22T02:59:35.652Z,0
2016-10-22T03:00:50.410Z,0
2016-10-22T03:01:35.953Z,0
2016-10-22T03:02:50.958Z,0
2016-10-22T03:03:35.517Z,0
2016-10-22T03:04:50.270Z,0
2016-10-22T03:05:35.495Z,0
2016-10-22T03:06:50.535Z,0
2016-10-22T03:07:35.433Z,0
2016-10-22T03:08:36.057Z,0
2016-10-22T03:09:35.478Z,0
2016-10-22T03:10:35.406Z,0
2016-10-22T03:11:35.650Z,0
2016-10-22T03:12:35.772Z,0
2016-10-22T03:13:35.254Z,0
2016-10-22T03:14:35.581Z,0
2016-10-22T03:15:35.553Z,0
2016-10-22T03:16:35.547Z,0
2016-10-22T03:17:35.552Z,0
2016-10-22T03:18:35.527Z,0
2016-10-22T03:19:35.539Z,0
2016-10-22T03:20:35.811Z,0
2016-10-22T03:21:36.035Z,0
2016-10-22T03:22:35.347Z,0
2016-10-22T03:23:35.692Z,0
2016-10-22T03:24:35.002Z,0
2016-10-22T03:25:49.651Z,0
2016-10-22T03:26:35.245Z,0
2016-10-22T03:27:34.833Z,0
2016-10-22T03:28:34.820Z,0
2016-10-22T03:29:34.771Z,0
2016-10-22T03:30:35.586Z,0
2016-10-22T03:31:34.691Z,0
2016-10-22T03:32:34.738Z,0
2016-10-22T03:33:34.728Z,0
2016-10-22T03:34:35.008Z,0
2016-10-22T03:35:35.752Z,0
2016-10-22T03:36:34.568Z,0
2016-10-22T03:37:34.603Z,0
2016-10-22T03:38:34.545Z,0
2016-10-22T03:39:34.507Z,0
2016-10-22T03:40:35.612Z,0
2016-10-22T03:41:34.835Z,0
2016-10-22T03:42:34.398Z,0
2016-10-22T03:44:34.705Z,0
2016-10-22T03:45:49.416Z,0
2016-10-22T03:46:34.297Z,0
2016-10-22T03:47:49.035Z,0
2016-10-22T03:48:35.004Z,0
2016-10-22T03:49:48.923Z,0
2016-10-22T03:50:34.998Z,0
2016-10-22T03:51:48.893Z,0
2016-10-22T03:52:34.106Z,0
2016-10-22T03:53:34.069Z,0
2016-10-22T03:54:34.434Z,0
2016-10-22T03:55:35.747Z,0
2016-10-22T03:56:34.757Z,0
2016-10-22T03:57:34.321Z,0
2016-10-22T03:58:33.935Z,0
2016-10-22T03:59:34.294Z,0
2016-10-22T04:00:34.267Z,0
2016-10-22T04:01:33.927Z,0
2016-10-22T04:02:34.198Z,0
2016-10-22T04:03:34.276Z,0
2016-10-22T04:05:33.856Z,0
2016-10-22T04:07:33.658Z,0
2016-10-22T04:08:38.848Z,0
2016-10-22T04:09:33.626Z,0
2016-10-22T04:10:33.610Z,0
2016-10-22T04:11:33.613Z,0
2016-10-22T04:12:33.569Z,0
2016-10-22T04:13:33.883Z,0
2016-10-22T04:14:33.825Z,0
2016-10-22T04:15:33.488Z,0
2016-10-22T04:16:34.149Z,0
2016-10-22T04:17:33.730Z,0
2016-10-22T04:18:35.544Z,0
2016-10-22T04:19:33.722Z,0
2016-10-22T04:20:33.719Z,0
2016-10-22T04:21:33.979Z,0
2016-10-22T04:22:33.442Z,0
2016-10-22T04:23:34.053Z,0
2016-10-22T04:24:48.280Z,0
2016-10-22T04:25:33.980Z,0
2016-10-22T04:26:33.562Z,0
2016-10-22T04:27:33.500Z,0
2016-10-22T04:28:33.436Z,0
2016-10-22T04:29:33.030Z,0
2016-10-22T04:30:33.375Z,0
2016-10-22T04:31:33.719Z,0
2016-10-22T04:32:33.405Z,0
2016-10-22T04:34:32.899Z,0
2016-10-22T04:35:48.365Z,0
2016-10-22T04:36:32.861Z,0
2016-10-22T04:37:38.443Z,0
2016-10-22T04:38:33.232Z,0
2016-10-22T04:39:47.916Z,0
2016-10-22T04:40:33.506Z,0
2016-10-22T04:41:33.113Z,0
2016-10-22T04:42:35.454Z,0
2016-10-22T04:43:33.050Z,0
2016-10-22T04:44:47.365Z,0
2016-10-22T04:45:32.964Z,0
2016-10-22T04:46:47.721Z,0
2016-10-22T04:47:33.039Z,0
2016-10-22T04:48:47.299Z,0
2016-10-22T04:49:32.905Z,0
2016-10-22T04:50:47.143Z,0
2016-10-22T04:51:32.796Z,0
2016-10-22T04:52:32.991Z,0
2016-10-22T04:53:33.206Z,0
2016-10-22T04:54:32.718Z,0
2016-10-22T04:55:32.343Z,0
2016-10-22T04:56:32.318Z,0
2016-10-22T04:57:32.294Z,0
2016-10-22T04:58:32.283Z,0
2016-10-22T04:59:47.305Z,0
2016-10-22T05:00:32.160Z,0
2016-10-22T05:01:47.489Z,0
2016-10-22T05:02:32.082Z,0
2016-10-22T05:03:32.783Z,0
2016-10-22T05:04:32.438Z,0
2016-10-22T05:05:32.428Z,0
2016-10-22T05:06:32.790Z,0
2016-10-22T05:07:32.675Z,0
2016-10-22T05:08:47.015Z,0
2016-10-22T05:09:32.962Z,0
2016-10-22T05:10:32.221Z,0
2016-10-22T05:11:32.266Z,0
2016-10-22T05:12:32.180Z,0
2016-10-22T05:13:32.123Z,0
2016-10-22T05:14:32.097Z,0
2016-10-22T05:15:46.814Z,0
2016-10-22T05:16:32.034Z,0
2016-10-22T05:17:31.755Z,0
2016-10-22T05:18:31.632Z,0
2016-10-22T05:19:32.016Z,0
2016-10-22T05:20:32.342Z,0
2016-10-22T05:21:31.910Z,0
2016-10-22T05:22:32.142Z,0
2016-10-22T05:23:31.554Z,0
2016-10-22T05:24:31.498Z,0
2016-10-22T05:25:32.132Z,0
2016-10-22T05:26:31.462Z,0
2016-10-22T05:27:31.730Z,0
2016-10-22T05:28:31.723Z,0
2016-10-22T05:29:31.327Z,0
2016-10-22T05:30:31.402Z,0
2016-10-22T05:31:31.699Z,0
2016-10-22T05:32:31.579Z,0
2016-10-22T05:33:31.592Z,0
2016-10-22T05:34:31.596Z,0
2016-10-22T05:35:32.307Z,0
2016-10-22T05:36:31.834Z,0
2016-10-22T05:37:31.118Z,0
2016-10-22T05:38:31.012Z,0
2016-10-22T05:39:31.031Z,0
2016-10-22T05:40:30.980Z,0
2016-10-22T05:41:31.279Z,0
2016-10-22T05:42:30.933Z,0
2016-10-22T05:43:31.586Z,0
2016-10-22T05:44:30.865Z,0
2016-10-22T05:45:30.895Z,0
2016-10-22T05:46:31.213Z,0
2016-10-22T05:47:31.144Z,0
2016-10-22T05:48:31.129Z,0
2016-10-22T05:49:31.455Z,0
2016-10-22T05:50:32.270Z,0
2016-10-22T05:51:30.687Z,0
2016-10-22T05:52:30.649Z,0
2016-10-22T05:53:30.755Z,0
2016-10-22T05:54:45.675Z,0
2016-10-22T05:55:30.516Z,0
2016-10-22T05:56:31.265Z,0
2016-10-22T05:57:30.844Z,4
2016-10-22T05:58:30.448Z,4
2016-10-22T05:59:30.460Z,4
2016-10-22T06:00:31.261Z,4
2016-10-22T06:01:31.120Z,0
2016-10-22T06:02:30.692Z,4
2016-10-22T06:03:31.031Z,4
2016-10-22T06:04:30.701Z,4
2016-10-22T06:05:45.011Z,4
2016-10-22T06:06:30.318Z,8
2016-10-22T06:07:30.418Z,4
2016-10-22T06:08:30.242Z,4
2016-10-22T06:09:30.526Z,4
2016-10-22T06:10:30.522Z,4
2016-10-22T06:11:30.179Z,4
2016-10-22T06:12:44.752Z,4
2016-10-22T06:13:30.020Z,8
2016-10-22T06:14:30.067Z,8
2016-10-22T06:15:29.951Z,8
2016-10-22T06:16:30.687Z,8
2016-10-22T06:18:30.236Z,8
2016-10-22T06:19:29.937Z,8
2016-10-22T06:20:30.268Z,8
2016-10-22T06:21:29.795Z,8
2016-10-22T06:22:29.765Z,12
2016-10-22T06:23:29.741Z,12
2016-10-22T06:24:29.707Z,12
2016-10-22T06:25:29.648Z,12
2016-10-22T06:26:30.031Z,16
2016-10-22T06:27:29.587Z,20
2016-10-22T06:28:44.710Z,20
2016-10-22T06:29:29.567Z,20
2016-10-22T06:30:29.890Z,20
2016-10-22T06:31:29.825Z,20
2016-10-22T06:32:29.550Z,24
2016-10-22T06:33:44.173Z,20
2016-10-22T06:34:29.803Z,24
2016-10-22T06:35:44.135Z,24
2016-10-22T06:36:29.683Z,20
2016-10-22T06:38:29.276Z,16
2016-10-22T06:39:44.315Z,20
2016-10-22T06:40:29.310Z,16
2016-10-22T06:41:29.225Z,16
2016-10-22T06:42:29.180Z,16
2016-10-22T06:43:29.177Z,20
2016-10-22T06:44:29.209Z,20
2016-10-22T06:45:29.444Z,20
2016-10-22T06:46:29.063Z,24
2016-10-22T06:47:28.990Z,24
2016-10-22T06:48:29.003Z,28
2016-10-22T06:49:28.967Z,28
2016-10-22T06:50:43.965Z,32
2016-10-22T06:51:28.923Z,32
2016-10-22T06:52:29.244Z,32
2016-10-22T06:53:28.856Z,32
2016-10-22T06:54:28.802Z,32
2016-10-22T06:55:28.824Z,36
2016-10-22T06:56:28.757Z,44
2016-10-22T06:57:29.101Z,44
2016-10-22T06:58:28.751Z,44
2016-10-22T06:59:43.400Z,44
2016-10-22T07:00:29.757Z,40
2016-10-22T07:01:29.262Z,32
2016-10-22T07:02:29.179Z,44
2016-10-22T07:03:28.573Z,52
2016-10-22T07:04:28.515Z,56
2016-10-22T07:16:48.239Z,48
2016-10-22T07:17:33.973Z,44
2016-10-22T07:18:48.244Z,44
2016-10-22T07:19:33.855Z,44
2016-10-22T07:20:48.184Z,40
2016-10-22T07:21:34.189Z,40
2016-10-22T07:22:33.476Z,40
2016-10-22T07:23:34.241Z,44
2016-10-22T07:24:33.327Z,48
2016-10-22T07:25:33.249Z,60
2016-10-22T07:26:33.203Z,60
2016-10-22T07:27:33.545Z,60
2016-10-22T07:28:33.248Z,64
2016-10-22T07:29:47.909Z,80
2016-10-22T07:30:33.890Z,84
2016-10-22T07:31:33.081Z,72
2016-10-22T07:32:33.017Z,56
2016-10-22T07:33:33.017Z,56
2016-10-22T07:34:33.020Z,52
2016-10-22T07:35:32.983Z,60
2016-10-22T07:36:49.104Z,72
2016-10-22T07:37:33.978Z,64
2016-10-22T07:38:33.632Z,72
2016-10-22T07:39:32.935Z,80
2016-10-22T07:40:32.996Z,76
2016-10-22T07:41:47.531Z,88
2016-10-22T07:42:32.805Z,84
2016-10-22T07:43:32.735Z,64
2016-10-22T07:44:32.745Z,52
2016-10-22T07:45:33.186Z,52
2016-10-22T07:46:33.089Z,56
2016-10-22T07:47:32.607Z,52
2016-10-22T07:48:33.661Z,64
2016-10-22T07:58:35.519Z,84
2016-10-22T07:58:51.277Z,84
2016-10-22T07:59:51.262Z,84
2016-10-22T08:00:52.072Z,76
2016-10-22T08:01:51.197Z,76
2016-10-22T08:02:51.265Z,72
2016-10-22T08:03:51.173Z,72
2016-10-22T08:07:52.102Z,108
2016-10-22T08:08:37.357Z,112
2016-10-22T08:09:37.305Z,104
2016-10-22T08:10:37.623Z,92
2016-10-22T08:11:37.238Z,88
2016-10-22T08:12:37.210Z,92
2016-10-22T08:13:37.501Z,88
2016-10-22T08:14:37.271Z,88
2016-10-22T08:15:37.569Z,92
2016-10-22T08:16:37.154Z,108
2016-10-22T08:17:52.261Z,92
2016-10-22T08:18:37.092Z,104
2016-10-22T08:19:37.070Z,128
2016-10-22T08:20:36.985Z,128
2016-10-22T08:21:37.209Z,132
2016-10-22T08:22:36.959Z,116
2016-10-22T08:23:37.007Z,120
2016-10-22T08:24:38.008Z,144
2016-10-22T08:25:36.914Z,152
2016-10-22T08:26:36.830Z,144
2016-10-22T08:27:36.777Z,124
2016-10-22T08:28:36.785Z,104
2016-10-22T08:29:37.272Z,88
2016-10-22T08:30:36.691Z,72
2016-10-22T08:31:36.675Z,76
2016-10-22T08:32:36.656Z,80
2016-10-22T08:33:37.084Z,92
2016-10-22T08:34:36.614Z,88
2016-10-22T08:35:36.548Z,100
2016-10-22T08:36:36.940Z,108
2016-10-22T08:37:37.931Z,104
2016-10-22T08:39:36.833Z,88
2016-10-22T08:40:51.127Z,88
2016-10-22T08:41:36.835Z,120
2016-10-22T08:42:51.447Z,120
2016-10-22T08:43:37.133Z,124
2016-10-22T08:44:51.057Z,112
2016-10-22T08:45:36.275Z,104
2016-10-22T08:46:36.251Z,104
2016-10-22T08:47:36.783Z,92
2016-10-22T08:48:36.996Z,92
2016-10-22T08:49:50.866Z,112
2016-10-22T08:50:36.730Z,104
2016-10-22T08:51:50.809Z,100
2016-10-22T08:52:36.488Z,96
2016-10-22T08:53:42.292Z,84
2016-10-22T08:54:36.085Z,72
2016-10-22T08:55:36.301Z,72
2016-10-22T08:56:36.010Z,108
2016-10-22T08:57:36.304Z,164
2016-10-22T08:58:35.875Z,176
2016-10-22T08:59:36.566Z,180
2016-10-22T09:00:35.926Z,172
2016-10-22T09:01:36.149Z,160
2016-10-22T09:02:36.437Z,120
2016-10-22T09:03:35.782Z,104
2016-10-22T09:04:35.722Z,96
2016-10-22T09:06:35.706Z,112
2016-10-22T09:07:35.658Z,128
2016-10-22T09:08:35.579Z,132
2016-10-22T09:09:35.564Z,136
2016-10-22T09:10:35.916Z,128
2016-10-22T09:11:37.647Z,140
2016-10-22T09:13:47.203Z,136
2016-10-22T09:14:35.642Z,144
2016-10-22T09:15:36.464Z,140
2016-10-22T09:16:35.416Z,152
2016-10-22T09:17:35.318Z,136
2016-10-22T09:18:35.981Z,164
2016-10-22T09:19:35.307Z,168
2016-10-22T09:21:35.196Z,136
2016-10-22T09:22:35.166Z,140
2016-10-22T09:23:50.941Z,160
2016-10-22T09:24:35.514Z,152
2016-10-22T09:25:35.118Z,140
2016-10-22T09:26:35.052Z,132
2016-10-22T09:27:35.054Z,108
2016-10-22T09:28:35.018Z,100
2016-10-22T09:29:36.065Z,100
2016-10-22T09:30:35.239Z,76
2016-10-22T09:31:49.648Z,60
2016-10-22T09:32:35.255Z,56
2016-10-22T09:33:35.402Z,64
2016-10-22T09:34:49.969Z,68
2016-10-22T09:35:34.873Z,72
2016-10-22T09:36:34.766Z,84
2016-10-22T09:37:35.403Z,88
2016-10-22T09:38:34.792Z,96
2016-10-22T09:39:35.032Z,108
2016-10-22T09:40:35.141Z,112
2016-10-22T09:41:34.628Z,120
2016-10-22T09:42:34.645Z,128
2016-10-22T09:43:34.572Z,132
2016-10-22T09:44:34.998Z,128
2016-10-22T09:45:34.731Z,136
2016-10-22T09:46:34.862Z,136
2016-10-22T09:47:34.450Z,144
2016-10-22T09:48:34.782Z,148
2016-10-22T09:49:34.856Z,144
2016-10-22T09:50:34.667Z,140
2016-10-22T09:51:49.098Z,140
2016-10-22T09:52:34.708Z,148
2016-10-22T09:53:34.487Z,152
2016-10-22T09:54:34.237Z,156
2016-10-22T09:55:34.291Z,152
2016-10-22T09:56:35.299Z,152
2016-10-22T09:57:34.308Z,148
2016-10-22T09:58:40.516Z,144
2016-10-22T09:59:34.575Z,148
2016-10-22T10:00:34.893Z,152
2016-10-22T10:01:34.086Z,152
2016-10-22T10:02:34.063Z,148
2016-10-22T10:03:34.430Z,148
2016-10-22T10:04:33.973Z,152
2016-10-22T10:05:33.938Z,160
2016-10-22T10:06:34.223Z,156
2016-10-22T10:07:33.866Z,148
2016-10-22T10:08:34.567Z,148
2016-10-22T10:09:33.822Z,144
2016-10-22T10:11:33.872Z,148
2016-10-22T10:12:48.450Z,148
2016-10-22T10:13:34.048Z,148
2016-10-22T10:14:48.762Z,156
2016-10-22T10:15:33.828Z,152
2016-10-22T10:16:46.543Z,156
2016-10-22T10:17:33.587Z,148
2016-10-22T10:18:33.560Z,144
2016-10-22T10:19:33.560Z,136
2016-10-22T10:20:33.529Z,128
2016-10-22T10:21:33.462Z,128
2016-10-22T10:22:33.631Z,136
2016-10-22T10:23:40.088Z,152
2016-10-22T10:24:33.449Z,168
2016-10-22T10:25:33.326Z,176
2016-10-22T10:26:34.395Z,180
2016-10-22T10:27:33.661Z,184
2016-10-22T10:28:33.288Z,188
2016-10-22T10:29:34.224Z,188
2016-10-22T10:30:33.219Z,196
2016-10-22T10:31:33.153Z,200
2016-10-22T10:32:33.125Z,200
2016-10-22T10:33:33.770Z,196
2016-10-22T10:34:47.839Z,188
2016-10-22T10:35:34.161Z,184
2016-10-22T10:36:33.391Z,172
2016-10-22T10:37:33.006Z,164
2016-10-22T10:38:32.991Z,168
2016-10-22T10:39:32.972Z,164
2016-10-22T10:40:32.954Z,156
2016-10-22T10:41:32.961Z,156
2016-10-22T10:42:32.857Z,156
2016-10-22T10:43:32.876Z,156
2016-10-22T10:44:32.904Z,152
2016-10-22T10:45:33.099Z,148
2016-10-22T10:46:32.781Z,144
2016-10-22T10:47:33.221Z,140
2016-10-22T10:48:33.328Z,140
2016-10-22T10:49:32.693Z,136
2016-10-22T10:50:47.742Z,128
2016-10-22T10:51:32.970Z,132
2016-10-22T10:52:32.900Z,132
2016-10-22T10:53:32.608Z,132
2016-10-22T10:54:32.583Z,140
2016-10-22T10:55:32.544Z,140
2016-10-22T10:56:32.439Z,140
2016-10-22T10:57:32.404Z,144
2016-10-22T10:58:33.294Z,144
2016-10-22T10:59:32.341Z,140
2016-10-22T11:00:32.355Z,140
2016-10-22T11:01:47.385Z,132
2016-10-22T11:02:33.115Z,124
2016-10-22T11:03:32.621Z,120
2016-10-22T11:05:32.726Z,112
2016-10-22T11:06:46.977Z,108
2016-10-22T11:07:32.549Z,104
2016-10-22T11:08:48.981Z,96
2016-10-22T11:09:34.365Z,92
2016-10-22T11:10:34.762Z,88
2016-10-22T11:11:35.665Z,80
2016-10-22T11:12:35.279Z,80
2016-10-22T11:13:48.126Z,72
2016-10-22T11:14:32.643Z,68
2016-10-22T11:16:31.972Z,92
2016-10-22T11:18:32.741Z,108
2016-10-22T11:19:32.123Z,112
2016-10-22T11:20:31.763Z,112
2016-10-22T11:21:31.733Z,116
2016-10-22T11:22:31.699Z,116
2016-10-22T11:24:31.743Z,112
2016-10-22T11:25:31.597Z,112
2016-10-22T11:26:31.956Z,112
2016-10-22T11:27:32.354Z,108
2016-10-22T11:28:31.523Z,104
2016-10-22T11:29:31.887Z,96
2016-10-22T11:31:31.661Z,92
2016-10-22T11:32:31.448Z,92
2016-10-22T11:33:31.358Z,96
2016-10-22T11:34:31.359Z,96
2016-10-22T11:35:31.365Z,96
2016-10-22T11:36:31.568Z,92
2016-10-22T11:37:31.269Z,88
2016-10-22T11:38:31.252Z,80
2016-10-22T11:39:31.255Z,80
2016-10-22T11:40:31.799Z,76
2016-10-22T11:41:31.114Z,84
2016-10-22T11:42:31.247Z,84
2016-10-22T11:43:31.075Z,84
2016-10-22T11:44:31.207Z,80
2016-10-22T11:45:32.443Z,72
2016-10-22T11:46:31.373Z,68
2016-10-22T11:47:31.026Z,68
2016-10-22T11:48:31.373Z,60
2016-10-22T11:49:30.925Z,56
2016-10-22T11:51:01.079Z,52
2016-10-22T11:51:31.248Z,52
2016-10-22T11:52:45.570Z,44
2016-10-22T11:53:30.819Z,44
2016-10-22T11:54:31.111Z,44
2016-10-22T11:55:31.528Z,48
2016-10-22T11:56:30.747Z,52
2016-10-22T11:57:31.801Z,60
2016-10-22T11:58:30.989Z,64
2016-10-22T11:59:45.662Z,72
2016-10-22T12:00:31.046Z,76
2016-10-22T12:02:30.902Z,88
2016-10-22T12:03:35.577Z,96
2016-10-22T12:04:30.497Z,100
2016-10-22T12:05:46.258Z,108
2016-10-22T12:06:30.433Z,108
2016-10-22T12:07:55.798Z,112
2016-10-22T12:08:30.759Z,116
2016-10-22T12:09:45.160Z,120
2016-10-22T12:10:30.805Z,120
2016-10-22T12:11:30.858Z,120
2016-10-22T12:12:30.333Z,120
2016-10-22T12:13:30.536Z,120
2016-10-22T12:14:30.200Z,124
2016-10-22T12:15:30.523Z,124
2016-10-22T12:16:30.498Z,128
2016-10-22T12:17:30.490Z,132
2016-10-22T12:18:30.561Z,120
2016-10-22T12:19:30.090Z,120
2016-10-22T12:20:30.449Z,128
2016-10-22T12:21:30.034Z,128
2016-10-22T12:22:30.379Z,132
2016-10-22T12:23:29.950Z,132
2016-10-22T12:25:30.248Z,136
2016-10-22T12:26:29.835Z,140
2016-10-22T12:27:44.894Z,144
2016-10-22T12:28:29.772Z,144
2016-10-22T12:29:31.470Z,144
2016-10-22T12:30:29.698Z,140
2016-10-22T12:31:44.484Z,136
2016-10-22T12:32:29.650Z,140
2016-10-22T12:33:29.627Z,144
2016-10-22T12:34:29.591Z,152
2016-10-22T12:35:29.566Z,160
2016-10-22T12:36:29.573Z,160
2016-10-22T12:37:29.905Z,164
2016-10-22T12:38:29.933Z,172
2016-10-22T12:39:29.779Z,168
2016-10-22T12:41:29.783Z,168
2016-10-22T12:42:29.480Z,164
2016-10-22T12:43:29.773Z,164
2016-10-22T12:44:29.322Z,164
2016-10-22T12:46:29.461Z,152
2016-10-22T12:47:44.325Z,136
2016-10-22T12:48:29.218Z,128
2016-10-22T12:49:29.139Z,136
2016-10-22T12:50:29.177Z,140
2016-10-22T12:51:29.502Z,148
2016-10-22T12:52:43.984Z,148
2016-10-22T12:53:29.344Z,144
2016-10-22T12:54:44.417Z,124
2016-10-22T12:55:29.364Z,120
2016-10-22T12:56:36.088Z,128
2016-10-22T12:57:28.942Z,128
2016-10-22T12:58:28.957Z,132
2016-10-22T12:59:32.646Z,132
2016-10-22T13:00:28.991Z,128
2016-10-22T13:01:29.037Z,116
2016-10-22T13:02:28.782Z,112
2016-10-22T13:03:28.793Z,108
2016-10-22T13:04:28.785Z,108
2016-10-22T13:05:58.191Z,108
2016-10-22T13:06:28.728Z,108
2016-10-22T13:07:28.630Z,108
2016-10-22T13:08:28.582Z,112
2016-10-22T13:09:28.962Z,116
2016-10-22T13:10:28.957Z,116
2016-10-22T13:11:29.253Z,116
2016-10-22T13:12:28.640Z,112
2016-10-22T13:13:28.569Z,116
2016-10-22T13:15:28.396Z,124
2016-10-22T13:16:28.796Z,128
2016-10-22T13:17:28.985Z,128
2016-10-22T13:18:28.381Z,128
2016-10-22T13:19:28.291Z,124
2016-10-22T13:20:43.078Z,120
2016-10-22T13:21:28.262Z,120
2016-10-22T13:22:42.925Z,124
2016-10-22T13:23:28.567Z,124
2016-10-22T13:24:28.240Z,124
2016-10-22T13:25:28.463Z,124
2016-10-22T13:26:28.139Z,124
2016-10-22T13:27:28.078Z,128
2016-10-22T13:28:28.011Z,128
2016-10-22T13:29:28.451Z,128
2016-10-22T13:30:28.337Z,128
2016-10-22T13:31:28.453Z,132
2016-10-22T13:32:28.150Z,132
2016-10-22T13:33:28.152Z,128
2016-10-22T13:34:28.260Z,124
2016-10-22T13:35:27.865Z,128
2016-10-22T13:36:27.856Z,128
2016-10-22T13:37:28.507Z,132
2016-10-22T13:38:27.763Z,132
2016-10-22T13:39:28.088Z,124
2016-10-22T13:40:28.065Z,120
2016-10-22T13:41:28.962Z,116
2016-10-22T13:42:42.416Z,116
2016-10-22T13:43:28.591Z,120
2016-10-22T13:44:42.307Z,124
2016-10-22T13:45:28.465Z,124
2016-10-22T13:46:27.751Z,120
2016-10-22T13:47:27.455Z,116
2016-10-22T13:48:27.800Z,112
2016-10-22T13:49:27.441Z,116
2016-10-22T13:50:27.442Z,116
2016-10-22T13:51:42.208Z,116
2016-10-22T13:52:27.373Z,116
2016-10-22T13:53:42.832Z,108
2016-10-22T13:54:27.265Z,108
2016-10-22T13:55:28.019Z,108
2016-10-22T13:56:28.315Z,108
2016-10-22T13:57:27.657Z,108
2016-10-22T13:58:27.198Z,104
2016-10-22T13:59:27.220Z,108
2016-10-22T14:00:27.290Z,108
2016-10-22T14:01:27.144Z,112
2016-10-22T14:02:27.451Z,112
2016-10-22T14:03:27.113Z,112
2016-10-22T14:04:33.169Z,112
2016-10-22T14:05:27.054Z,112
2016-10-22T14:06:41.810Z,108
2016-10-22T14:07:27.680Z,108
2016-10-22T14:08:27.365Z,104
2016-10-22T14:09:27.297Z,100
2016-10-22T14:10:26.860Z,100
2016-10-22T14:11:27.184Z,100
2016-10-22T14:12:26.941Z,100
2016-10-22T14:13:26.872Z,96
2016-10-22T14:14:27.048Z,92
2016-10-22T14:15:26.756Z,96
2016-10-22T14:16:26.663Z,96
2016-10-22T14:17:41.968Z,96
2016-10-22T14:18:27.102Z,96
2016-10-22T14:19:26.544Z,92
2016-10-22T14:20:26.551Z,88
2016-10-22T14:21:26.489Z,88
2016-10-22T14:22:26.484Z,88
2016-10-22T14:23:26.847Z,84
2016-10-22T14:26:19.391Z,80
2016-10-22T14:26:49.543Z,80
2016-10-22T14:28:04.725Z,80
2016-10-22T14:28:49.856Z,76
2016-10-22T14:30:04.569Z,76
2016-10-22T14:30:50.018Z,76
2016-10-22T14:31:49.360Z,76
2016-10-22T14:32:50.381Z,72
2016-10-22T14:33:49.709Z,68
2016-10-22T14:34:49.317Z,68
2016-10-22T14:35:49.263Z,64
2016-10-22T14:36:49.295Z,64
2016-10-22T14:37:49.705Z,60
2016-10-22T14:38:49.179Z,64
2016-10-22T14:39:49.764Z,64
2016-10-22T14:41:04.255Z,60
2016-10-22T14:41:49.995Z,60
2016-10-22T14:42:49.610Z,60
2016-10-22T14:43:49.191Z,60
2016-10-22T14:44:49.476Z,56
2016-10-22T14:45:48.968Z,52
2016-10-22T14:47:04.439Z,40
2016-10-22T14:48:49.337Z,28
2016-10-22T14:49:48.866Z,28
2016-10-22T14:50:49.211Z,28
2016-10-22T14:51:49.138Z,28
2016-10-22T14:52:49.175Z,28
2016-10-22T14:53:49.250Z,32
2016-10-22T14:54:49.083Z,32
2016-10-22T14:55:49.478Z,32
2016-10-22T14:56:48.633Z,40
2016-10-22T14:57:49.387Z,40
2016-10-22T14:58:49.361Z,44
2016-10-22T14:59:48.582Z,44
2016-10-22T15:01:03.764Z,44
2016-10-22T15:01:48.975Z,44
2016-10-22T15:02:49.620Z,44
2016-10-22T15:03:48.445Z,44
2016-10-22T15:04:48.766Z,44
2016-10-22T15:05:48.931Z,48
2016-10-22T15:06:48.557Z,48
2016-10-22T15:07:49.054Z,44